sensor_id;sensor_type;location;lat;lon;timestamp;P1;durP1;ratioP1;P2;durP2;ratioP2
25667;SDS011;18003;-33.830;151.202;2023-10-31T01:55:37;4.78;;;4.05;;
25667;SDS011;18003;-33.830;151.202;2023-10-31T01:58:07;4.03;;;3.83;;
25667;SDS011;18003;-33.830;151.202;2023-10-31T02:00:43;4.55;;;4.15;;
25667;SDS011;18003;-33.830;151.202;2023-10-31T02:03:09;4.35;;;3.98;;
25667;SDS011;18003;-33.830;151.202;2023-10-31T02:05:40;4.30;;;4.00;;
25667;SDS011;18003;-33.830;151.202;2023-10-31T02:08:10;3.98;;;3.67;;
25667;SDS011;18003;-33.830;151.202;2023-10-31T02:10:40;4.35;;;4.05;;
25667;SDS011;18003;-33.830;151.202;2023-10-31T02:13:16;3.80;;;3.60;;
25667;SDS011;18003;-33.830;151.202;2023-10-31T02:15:46;4.12;;;3.80;;
25667;SDS011;18003;-33.830;151.202;2023-10-31T02:18:16;3.70;;;3.50;;
25667;SDS011;18003;-33.830;151.202;2023-10-31T02:20:45;3.60;;;3.40;;
25667;SDS011;18003;-33.830;151.202;2023-10-31T02:23:16;3.80;;;3.50;;
25667;SDS011;18003;-33.830;151.202;2023-10-31T02:25:46;4.12;;;3.72;;
25667;SDS011;18003;-33.830;151.202;2023-10-31T02:28:15;4.50;;;4.20;;
25667;SDS011;18003;-33.830;151.202;2023-10-31T02:30:45;4.60;;;4.30;;
25667;SDS011;18003;-33.830;151.202;2023-10-31T02:33:15;4.20;;;3.90;;
25667;SDS011;18003;-33.830;151.202;2023-10-31T02:35:45;4.90;;;4.40;;
25667;SDS011;18003;-33.830;151.202;2023-10-31T02:38:14;6.42;;;4.00;;
25667;SDS011;18003;-33.830;151.202;2023-10-31T02:40:44;4.20;;;4.00;;
25667;SDS011;18003;-33.830;151.202;2023-10-31T02:43:14;4.90;;;4.60;;
25667;SDS011;18003;-33.830;151.202;2023-10-31T02:45:44;4.40;;;4.10;;
25667;SDS011;18003;-33.830;151.202;2023-10-31T02:48:14;4.28;;;3.98;;
25667;SDS011;18003;-33.830;151.202;2023-10-31T02:50:43;4.15;;;3.95;;
25667;SDS011;18003;-33.830;151.202;2023-10-31T02:53:13;4.12;;;3.83;;
25667;SDS011;18003;-33.830;151.202;2023-10-31T02:55:43;3.92;;;3.62;;
25667;SDS011;18003;-33.830;151.202;2023-10-31T02:58:13;3.75;;;3.55;;
25667;SDS011;18003;-33.830;151.202;2023-10-31T05:16:07;12.58;;;4.62;;
25667;SDS011;18003;-33.830;151.202;2023-10-31T05:18:38;18.25;;;6.15;;
25667;SDS011;18003;-33.830;151.202;2023-10-31T05:21:08;12.55;;;5.00;;
25667;SDS011;18003;-33.830;151.202;2023-10-31T06:35:10;12.30;;;5.00;;
25667;SDS011;18003;-33.830;151.202;2023-10-31T06:37:40;10.82;;;4.60;;
25667;SDS011;18003;-33.830;151.202;2023-10-31T06:40:10;10.90;;;5.17;;
25667;SDS011;18003;-33.830;151.202;2023-10-31T06:42:46;9.33;;;4.47;;
25667;SDS011;18003;-33.830;151.202;2023-10-31T06:45:14;13.35;;;5.30;;
25667;SDS011;18003;-33.830;151.202;2023-10-31T06:47:43;11.90;;;5.20;;
25667;SDS011;18003;-33.830;151.202;2023-10-31T06:50:13;12.85;;;4.90;;
25667;SDS011;18003;-33.830;151.202;2023-10-31T06:52:43;11.55;;;4.60;;
25667;SDS011;18003;-33.830;151.202;2023-10-31T06:55:13;10.72;;;4.67;;
25667;SDS011;18003;-33.830;151.202;2023-10-31T06:57:42;14.20;;;4.83;;
25667;SDS011;18003;-33.830;151.202;2023-10-31T07:00:16;7.95;;;4.10;;
25667;SDS011;18003;-33.830;151.202;2023-10-31T07:02:46;10.50;;;3.90;;
25667;SDS011;18003;-33.830;151.202;2023-10-31T07:05:16;8.28;;;4.30;;
25667;SDS011;18003;-33.830;151.202;2023-10-31T07:07:46;10.20;;;4.03;;
25667;SDS011;18003;-33.830;151.202;2023-10-31T07:33:12;8.23;;;4.60;;
25667;SDS011;18003;-33.830;151.202;2023-10-31T07:35:41;11.70;;;4.17;;
25667;SDS011;18003;-33.830;151.202;2023-10-31T07:40:52;9.88;;;4.03;;
25667;SDS011;18003;-33.830;151.202;2023-10-31T07:43:22;6.95;;;3.90;;
25667;SDS011;18003;-33.830;151.202;2023-10-31T07:45:51;28.62;;;4.37;;
25667;SDS011;18003;-33.830;151.202;2023-10-31T07:48:21;11.30;;;3.85;;
25667;SDS011;18003;-33.830;151.202;2023-10-31T07:50:51;10.93;;;3.92;;
25667;SDS011;18003;-33.830;151.202;2023-10-31T07:59:02;10.80;;;3.60;;
25667;SDS011;18003;-33.830;151.202;2023-10-31T08:01:32;9.20;;;4.55;;
25667;SDS011;18003;-33.830;151.202;2023-10-31T08:04:02;11.57;;;4.62;;
25667;SDS011;18003;-33.830;151.202;2023-10-31T08:55:14;11.70;;;4.10;;
25667;SDS011;18003;-33.830;151.202;2023-10-31T08:57:43;10.25;;;3.83;;
25667;SDS011;18003;-33.830;151.202;2023-10-31T09:00:21;12.10;;;3.90;;
25667;SDS011;18003;-33.830;151.202;2023-10-31T09:02:50;9.05;;;3.72;;
25667;SDS011;18003;-33.830;151.202;2023-10-31T09:05:20;7.20;;;3.62;;
25667;SDS011;18003;-33.830;151.202;2023-10-31T09:07:50;8.88;;;3.80;;
25667;SDS011;18003;-33.830;151.202;2023-10-31T09:10:20;8.08;;;3.80;;
25667;SDS011;18003;-33.830;151.202;2023-10-31T09:13:02;9.70;;;3.70;;
25667;SDS011;18003;-33.830;151.202;2023-10-31T09:15:32;6.95;;;3.30;;
25667;SDS011;18003;-33.830;151.202;2023-10-31T09:18:02;7.12;;;3.33;;
25667;SDS011;18003;-33.830;151.202;2023-10-31T09:20:33;10.72;;;3.70;;
25667;SDS011;18003;-33.830;151.202;2023-10-31T09:23:03;9.78;;;4.00;;
25667;SDS011;18003;-33.830;151.202;2023-10-31T09:25:32;10.18;;;3.60;;
25667;SDS011;18003;-33.830;151.202;2023-10-31T09:28:02;9.38;;;3.20;;
25667;SDS011;18003;-33.830;151.202;2023-10-31T09:30:32;12.00;;;3.87;;
25667;SDS011;18003;-33.830;151.202;2023-10-31T09:33:18;8.88;;;3.87;;
25667;SDS011;18003;-33.830;151.202;2023-10-31T11:32:55;9.23;;;5.05;;
25667;SDS011;18003;-33.830;151.202;2023-10-31T11:35:26;12.88;;;5.22;;
25667;SDS011;18003;-33.830;151.202;2023-10-31T13:46:43;11.43;;;4.70;;
25667;SDS011;18003;-33.830;151.202;2023-10-31T13:49:12;14.65;;;5.05;;
25667;SDS011;18003;-33.830;151.202;2023-10-31T13:51:42;19.52;;;7.58;;
25667;SDS011;18003;-33.830;151.202;2023-10-31T13:54:12;17.15;;;7.22;;
25667;SDS011;18003;-33.830;151.202;2023-10-31T13:56:42;15.53;;;7.15;;
25667;SDS011;18003;-33.830;151.202;2023-10-31T13:59:12;11.83;;;6.10;;
25667;SDS011;18003;-33.830;151.202;2023-10-31T14:01:41;16.00;;;5.97;;
25667;SDS011;18003;-33.830;151.202;2023-10-31T14:04:12;12.63;;;5.53;;
25667;SDS011;18003;-33.830;151.202;2023-10-31T14:06:42;11.83;;;5.28;;
25667;SDS011;18003;-33.830;151.202;2023-10-31T14:09:12;13.00;;;4.83;;
25667;SDS011;18003;-33.830;151.202;2023-10-31T14:11:42;13.08;;;4.47;;
25667;SDS011;18003;-33.830;151.202;2023-10-31T14:14:12;11.33;;;4.53;;
25667;SDS011;18003;-33.830;151.202;2023-10-31T14:39:11;12.70;;;4.25;;
25667;SDS011;18003;-33.830;151.202;2023-10-31T14:51:22;11.78;;;4.22;;
25667;SDS011;18003;-33.830;151.202;2023-10-31T14:53:52;10.85;;;4.40;;
25667;SDS011;18003;-33.830;151.202;2023-10-31T14:56:22;13.30;;;4.45;;
25667;SDS011;18003;-33.830;151.202;2023-10-31T15:23:44;12.05;;;4.40;;
25667;SDS011;18003;-33.830;151.202;2023-10-31T15:26:13;12.18;;;4.70;;
25667;SDS011;18003;-33.830;151.202;2023-10-31T15:31:31;13.55;;;4.95;;
25667;SDS011;18003;-33.830;151.202;2023-10-31T15:34:02;10.85;;;4.33;;
25667;SDS011;18003;-33.830;151.202;2023-10-31T15:36:32;13.13;;;4.60;;
25667;SDS011;18003;-33.830;151.202;2023-10-31T15:39:02;9.90;;;3.87;;
25667;SDS011;18003;-33.830;151.202;2023-10-31T15:41:32;11.25;;;4.40;;
25667;SDS011;18003;-33.830;151.202;2023-10-31T15:44:02;10.85;;;4.33;;
25667;SDS011;18003;-33.830;151.202;2023-10-31T15:46:32;13.10;;;4.22;;
25667;SDS011;18003;-33.830;151.202;2023-10-31T16:31:09;10.38;;;4.25;;
25667;SDS011;18003;-33.830;151.202;2023-10-31T16:33:39;11.35;;;4.05;;
25667;SDS011;18003;-33.830;151.202;2023-10-31T16:36:09;12.63;;;4.33;;
25667;SDS011;18003;-33.830;151.202;2023-10-31T16:38:39;9.83;;;3.80;;
25667;SDS011;18003;-33.830;151.202;2023-10-31T16:41:09;11.75;;;4.33;;
25667;SDS011;18003;-33.830;151.202;2023-10-31T16:43:40;12.77;;;4.20;;
25667;SDS011;18003;-33.830;151.202;2023-10-31T16:46:09;12.25;;;4.25;;
25667;SDS011;18003;-33.830;151.202;2023-10-31T16:48:40;11.68;;;4.40;;
25667;SDS011;18003;-33.830;151.202;2023-10-31T16:51:19;9.20;;;4.15;;
25667;SDS011;18003;-33.830;151.202;2023-10-31T16:53:49;10.32;;;4.37;;
25667;SDS011;18003;-33.830;151.202;2023-10-31T16:56:19;11.38;;;4.37;;
25667;SDS011;18003;-33.830;151.202;2023-10-31T16:58:48;8.88;;;3.65;;
25667;SDS011;18003;-33.830;151.202;2023-10-31T17:01:18;12.37;;;3.77;;
25667;SDS011;18003;-33.830;151.202;2023-10-31T17:03:48;14.13;;;4.08;;
25667;SDS011;18003;-33.830;151.202;2023-10-31T17:06:18;10.72;;;4.08;;
25667;SDS011;18003;-33.830;151.202;2023-10-31T17:52:23;11.93;;;4.75;;
25667;SDS011;18003;-33.830;151.202;2023-10-31T17:54:53;9.40;;;4.47;;
25667;SDS011;18003;-33.830;151.202;2023-10-31T17:57:32;12.58;;;3.92;;
25667;SDS011;18003;-33.830;151.202;2023-10-31T20:24:03;8.78;;;3.80;;
25667;SDS011;18003;-33.830;151.202;2023-10-31T20:52:41;12.95;;;5.05;;
25667;SDS011;18003;-33.830;151.202;2023-10-31T20:55:16;13.08;;;4.37;;
25667;SDS011;18003;-33.830;151.202;2023-10-31T20:57:55;13.70;;;3.85;;
25667;SDS011;18003;-33.830;151.202;2023-10-31T21:00:21;9.33;;;4.28;;
25667;SDS011;18003;-33.830;151.202;2023-10-31T22:37:13;8.45;;;4.90;;
25667;SDS011;18003;-33.830;151.202;2023-10-31T22:39:48;10.80;;;5.30;;
25667;SDS011;18003;-33.830;151.202;2023-10-31T22:42:22;8.43;;;4.83;;
25667;SDS011;18003;-33.830;151.202;2023-10-31T22:44:52;10.85;;;5.55;;
25667;SDS011;18003;-33.830;151.202;2023-10-31T22:47:22;13.32;;;6.12;;
25667;SDS011;18003;-33.830;151.202;2023-10-31T22:50:33;8.50;;;5.45;;
25667;SDS011;18003;-33.830;151.202;2023-10-31T22:52:39;8.93;;;5.60;;
25667;SDS011;18003;-33.830;151.202;2023-10-31T22:55:13;12.98;;;6.05;;
25667;SDS011;18003;-33.830;151.202;2023-10-31T23:07:27;10.00;;;4.97;;
25667;SDS011;18003;-33.830;151.202;2023-10-31T23:09:59;10.53;;;5.08;;
25667;SDS011;18003;-33.830;151.202;2023-10-31T23:15:18;9.73;;;4.85;;
25667;SDS011;18003;-33.830;151.202;2023-10-31T23:17:48;7.47;;;4.85;;
25667;SDS011;18003;-33.830;151.202;2023-10-31T23:20:19;9.33;;;4.60;;
25667;SDS011;18003;-33.830;151.202;2023-10-31T23:22:59;7.55;;;4.50;;
25667;SDS011;18003;-33.830;151.202;2023-10-31T23:28:26;6.85;;;5.00;;
25667;SDS011;18003;-33.830;151.202;2023-10-31T23:30:55;9.25;;;4.62;;
25667;SDS011;18003;-33.830;151.202;2023-10-31T23:36:26;8.90;;;4.70;;
25667;SDS011;18003;-33.830;151.202;2023-10-31T23:38:56;7.65;;;4.20;;
25667;SDS011;18003;-33.830;151.202;2023-10-31T23:44:23;6.85;;;3.72;;
